sensor_id;sensor_type;location;lat;lon;timestamp;P1;durP1;ratioP1;P2;durP2;ratioP2
13090;SDS011;6611;52.604;13.438;2023-04-23T00:03:15;6.37;;;4.73;;
13090;SDS011;6611;52.604;13.438;2023-04-23T00:08:20;5.53;;;4.67;;
13090;SDS011;6611;52.604;13.438;2023-04-23T00:13:23;6.90;;;4.97;;
13090;SDS011;6611;52.604;13.438;2023-04-23T00:18:25;8.03;;;4.60;;
13090;SDS011;6611;52.604;13.438;2023-04-23T00:23:28;5.90;;;4.43;;
13090;SDS011;6611;52.604;13.438;2023-04-23T00:28:30;6.17;;;4.80;;
13090;SDS011;6611;52.604;13.438;2023-04-23T00:33:31;6.40;;;4.63;;
13090;SDS011;6611;52.604;13.438;2023-04-23T00:38:34;5.93;;;4.50;;
13090;SDS011;6611;52.604;13.438;2023-04-23T00:43:37;4.93;;;4.33;;
13090;SDS011;6611;52.604;13.438;2023-04-23T00:48:39;5.53;;;4.50;;
13090;SDS011;6611;52.604;13.438;2023-04-23T00:53:43;5.63;;;4.83;;
13090;SDS011;6611;52.604;13.438;2023-04-23T00:58:44;5.87;;;4.60;;
13090;SDS011;6611;52.604;13.438;2023-04-23T01:03:46;6.80;;;5.20;;
13090;SDS011;6611;52.604;13.438;2023-04-23T01:08:50;6.10;;;5.47;;
13090;SDS011;6611;52.604;13.438;2023-04-23T01:13:52;6.57;;;5.30;;
13090;SDS011;6611;52.604;13.438;2023-04-23T01:18:54;7.20;;;5.17;;
13090;SDS011;6611;52.604;13.438;2023-04-23T01:23:58;6.17;;;4.73;;
13090;SDS011;6611;52.604;13.438;2023-04-23T01:29:00;6.77;;;4.43;;
13090;SDS011;6611;52.604;13.438;2023-04-23T01:34:02;5.73;;;4.83;;
13090;SDS011;6611;52.604;13.438;2023-04-23T01:39:05;8.20;;;5.03;;
13090;SDS011;6611;52.604;13.438;2023-04-23T01:44:08;5.77;;;4.63;;
13090;SDS011;6611;52.604;13.438;2023-04-23T01:49:10;6.33;;;5.30;;
13090;SDS011;6611;52.604;13.438;2023-04-23T01:54:13;10.30;;;5.13;;
13090;SDS011;6611;52.604;13.438;2023-04-23T01:59:14;5.67;;;5.07;;
13090;SDS011;6611;52.604;13.438;2023-04-23T02:04:16;6.97;;;5.23;;
13090;SDS011;6611;52.604;13.438;2023-04-23T02:09:20;5.40;;;4.73;;
13090;SDS011;6611;52.604;13.438;2023-04-23T02:14:21;6.73;;;5.20;;
13090;SDS011;6611;52.604;13.438;2023-04-23T02:19:23;5.77;;;4.93;;
13090;SDS011;6611;52.604;13.438;2023-04-23T02:24:26;6.83;;;5.33;;
13090;SDS011;6611;52.604;13.438;2023-04-23T02:29:28;7.03;;;6.03;;
13090;SDS011;6611;52.604;13.438;2023-04-23T02:34:30;6.63;;;5.47;;
13090;SDS011;6611;52.604;13.438;2023-04-23T02:39:33;6.73;;;5.67;;
13090;SDS011;6611;52.604;13.438;2023-04-23T02:44:34;6.13;;;5.53;;
13090;SDS011;6611;52.604;13.438;2023-04-23T02:49:36;7.90;;;6.10;;
13090;SDS011;6611;52.604;13.438;2023-04-23T02:54:39;8.57;;;5.90;;
13090;SDS011;6611;52.604;13.438;2023-04-23T02:59:41;7.27;;;6.13;;
13090;SDS011;6611;52.604;13.438;2023-04-23T03:04:43;9.33;;;6.27;;
13090;SDS011;6611;52.604;13.438;2023-04-23T03:09:46;7.67;;;6.13;;
13090;SDS011;6611;52.604;13.438;2023-04-23T03:14:48;7.73;;;6.07;;
13090;SDS011;6611;52.604;13.438;2023-04-23T03:19:50;9.07;;;6.43;;
13090;SDS011;6611;52.604;13.438;2023-04-23T03:24:53;7.43;;;6.37;;
13090;SDS011;6611;52.604;13.438;2023-04-23T03:29:54;7.73;;;6.67;;
13090;SDS011;6611;52.604;13.438;2023-04-23T03:34:56;7.23;;;5.77;;
13090;SDS011;6611;52.604;13.438;2023-04-23T03:39:59;6.60;;;5.73;;
13090;SDS011;6611;52.604;13.438;2023-04-23T03:45:03;7.40;;;6.03;;
13090;SDS011;6611;52.604;13.438;2023-04-23T03:50:05;6.53;;;5.90;;
13090;SDS011;6611;52.604;13.438;2023-04-23T03:55:09;6.50;;;5.57;;
13090;SDS011;6611;52.604;13.438;2023-04-23T04:00:11;9.17;;;6.17;;
13090;SDS011;6611;52.604;13.438;2023-04-23T04:05:13;7.07;;;6.03;;
13090;SDS011;6611;52.604;13.438;2023-04-23T04:10:17;8.37;;;6.13;;
13090;SDS011;6611;52.604;13.438;2023-04-23T04:15:18;7.37;;;5.77;;
13090;SDS011;6611;52.604;13.438;2023-04-23T04:20:20;7.57;;;5.60;;
13090;SDS011;6611;52.604;13.438;2023-04-23T04:25:23;8.40;;;6.43;;
13090;SDS011;6611;52.604;13.438;2023-04-23T04:30:27;11.33;;;6.50;;
13090;SDS011;6611;52.604;13.438;2023-04-23T04:35:29;6.60;;;5.67;;
13090;SDS011;6611;52.604;13.438;2023-04-23T04:40:33;7.73;;;6.37;;
13090;SDS011;6611;52.604;13.438;2023-04-23T04:45:34;7.80;;;5.30;;
13090;SDS011;6611;52.604;13.438;2023-04-23T04:50:36;10.83;;;5.53;;
13090;SDS011;6611;52.604;13.438;2023-04-23T04:55:39;7.20;;;5.27;;
13090;SDS011;6611;52.604;13.438;2023-04-23T05:00:41;7.10;;;5.63;;
13090;SDS011;6611;52.604;13.438;2023-04-23T05:05:43;6.30;;;4.97;;
13090;SDS011;6611;52.604;13.438;2023-04-23T05:10:46;5.50;;;4.87;;
13090;SDS011;6611;52.604;13.438;2023-04-23T05:15:49;5.50;;;4.83;;
13090;SDS011;6611;52.604;13.438;2023-04-23T05:20:51;6.27;;;4.37;;
13090;SDS011;6611;52.604;13.438;2023-04-23T05:25:54;6.70;;;4.67;;
13090;SDS011;6611;52.604;13.438;2023-04-23T05:30:57;5.53;;;4.60;;
13090;SDS011;6611;52.604;13.438;2023-04-23T05:35:59;5.70;;;4.63;;
13090;SDS011;6611;52.604;13.438;2023-04-23T05:41:02;5.40;;;4.60;;
13090;SDS011;6611;52.604;13.438;2023-04-23T05:46:04;6.47;;;4.47;;
13090;SDS011;6611;52.604;13.438;2023-04-23T05:51:06;4.73;;;3.70;;
13090;SDS011;6611;52.604;13.438;2023-04-23T05:56:09;4.70;;;4.10;;
13090;SDS011;6611;52.604;13.438;2023-04-23T06:01:11;4.17;;;3.57;;
13090;SDS011;6611;52.604;13.438;2023-04-23T06:06:13;4.50;;;3.73;;
13090;SDS011;6611;52.604;13.438;2023-04-23T06:11:16;4.87;;;3.87;;
13090;SDS011;6611;52.604;13.438;2023-04-23T06:16:17;6.63;;;3.30;;
13090;SDS011;6611;52.604;13.438;2023-04-23T06:21:19;4.27;;;3.50;;
13090;SDS011;6611;52.604;13.438;2023-04-23T06:26:22;4.37;;;3.50;;
13090;SDS011;6611;52.604;13.438;2023-04-23T06:31:24;3.63;;;3.23;;
13090;SDS011;6611;52.604;13.438;2023-04-23T06:36:26;5.17;;;3.60;;
13090;SDS011;6611;52.604;13.438;2023-04-23T06:41:29;5.00;;;3.90;;
13090;SDS011;6611;52.604;13.438;2023-04-23T06:46:30;6.73;;;3.47;;
13090;SDS011;6611;52.604;13.438;2023-04-23T06:51:32;5.97;;;3.73;;
13090;SDS011;6611;52.604;13.438;2023-04-23T06:56:36;5.50;;;3.70;;
13090;SDS011;6611;52.604;13.438;2023-04-23T07:01:38;5.63;;;3.50;;
13090;SDS011;6611;52.604;13.438;2023-04-23T07:06:40;3.50;;;3.00;;
13090;SDS011;6611;52.604;13.438;2023-04-23T07:11:43;4.73;;;3.50;;
13090;SDS011;6611;52.604;13.438;2023-04-23T07:16:44;3.80;;;3.03;;
13090;SDS011;6611;52.604;13.438;2023-04-23T07:21:46;3.87;;;3.27;;
13090;SDS011;6611;52.604;13.438;2023-04-23T07:26:49;4.33;;;3.60;;
13090;SDS011;6611;52.604;13.438;2023-04-23T07:31:51;5.47;;;3.90;;
13090;SDS011;6611;52.604;13.438;2023-04-23T07:36:52;4.67;;;3.47;;
13090;SDS011;6611;52.604;13.438;2023-04-23T07:41:56;5.97;;;4.10;;
13090;SDS011;6611;52.604;13.438;2023-04-23T07:46:58;6.97;;;4.33;;
13090;SDS011;6611;52.604;13.438;2023-04-23T07:52:00;6.07;;;3.87;;
13090;SDS011;6611;52.604;13.438;2023-04-23T07:57:03;5.67;;;3.80;;
13090;SDS011;6611;52.604;13.438;2023-04-23T08:02:05;4.33;;;3.53;;
13090;SDS011;6611;52.604;13.438;2023-04-23T08:07:06;4.77;;;3.90;;
13090;SDS011;6611;52.604;13.438;2023-04-23T08:12:10;5.13;;;3.70;;
13090;SDS011;6611;52.604;13.438;2023-04-23T08:17:11;4.50;;;3.77;;
13090;SDS011;6611;52.604;13.438;2023-04-23T08:22:13;6.27;;;3.67;;
13090;SDS011;6611;52.604;13.438;2023-04-23T08:27:16;4.30;;;3.67;;
13090;SDS011;6611;52.604;13.438;2023-04-23T08:32:18;6.13;;;4.43;;
13090;SDS011;6611;52.604;13.438;2023-04-23T08:37:20;5.50;;;4.20;;
13090;SDS011;6611;52.604;13.438;2023-04-23T08:42:26;5.87;;;4.70;;
13090;SDS011;6611;52.604;13.438;2023-04-23T08:47:36;6.40;;;4.10;;
13090;SDS011;6611;52.604;13.438;2023-04-23T08:52:45;5.80;;;5.20;;
13090;SDS011;6611;52.604;13.438;2023-04-23T08:57:49;5.77;;;5.17;;
13090;SDS011;6611;52.604;13.438;2023-04-23T09:02:51;7.03;;;5.50;;
13090;SDS011;6611;52.604;13.438;2023-04-23T09:07:53;9.03;;;5.93;;
13090;SDS011;6611;52.604;13.438;2023-04-23T09:12:57;7.97;;;6.37;;
13090;SDS011;6611;52.604;13.438;2023-04-23T09:17:58;7.57;;;6.10;;
13090;SDS011;6611;52.604;13.438;2023-04-23T09:23:05;9.17;;;6.40;;
13090;SDS011;6611;52.604;13.438;2023-04-23T09:28:09;8.03;;;6.37;;
13090;SDS011;6611;52.604;13.438;2023-04-23T09:33:11;5.20;;;4.70;;
13090;SDS011;6611;52.604;13.438;2023-04-23T09:38:13;5.97;;;4.83;;
13090;SDS011;6611;52.604;13.438;2023-04-23T09:43:16;5.97;;;4.33;;
13090;SDS011;6611;52.604;13.438;2023-04-23T09:48:18;3.60;;;3.00;;
13090;SDS011;6611;52.604;13.438;2023-04-23T09:53:21;1.83;;;1.70;;
13090;SDS011;6611;52.604;13.438;2023-04-23T09:58:24;2.43;;;2.00;;
13090;SDS011;6611;52.604;13.438;2023-04-23T10:03:26;3.00;;;2.37;;
13090;SDS011;6611;52.604;13.438;2023-04-23T10:08:28;2.90;;;2.37;;
13090;SDS011;6611;52.604;13.438;2023-04-23T10:13:33;2.20;;;2.00;;
13090;SDS011;6611;52.604;13.438;2023-04-23T10:18:35;3.10;;;2.37;;
13090;SDS011;6611;52.604;13.438;2023-04-23T10:23:38;2.00;;;1.80;;
13090;SDS011;6611;52.604;13.438;2023-04-23T10:28:45;2.40;;;1.80;;
13090;SDS011;6611;52.604;13.438;2023-04-23T10:33:48;2.53;;;1.80;;
13090;SDS011;6611;52.604;13.438;2023-04-23T10:38:50;2.77;;;2.10;;
13090;SDS011;6611;52.604;13.438;2023-04-23T10:43:55;2.03;;;1.83;;
13090;SDS011;6611;52.604;13.438;2023-04-23T10:49:04;1.43;;;1.30;;
13090;SDS011;6611;52.604;13.438;2023-04-23T10:54:13;1.50;;;1.40;;
13090;SDS011;6611;52.604;13.438;2023-04-23T10:59:20;2.73;;;1.90;;
13090;SDS011;6611;52.604;13.438;2023-04-23T11:04:22;3.00;;;2.10;;
13090;SDS011;6611;52.604;13.438;2023-04-23T11:09:29;2.77;;;2.00;;
13090;SDS011;6611;52.604;13.438;2023-04-23T11:14:34;3.13;;;2.13;;
13090;SDS011;6611;52.604;13.438;2023-04-23T11:19:38;3.97;;;2.83;;
13090;SDS011;6611;52.604;13.438;2023-04-23T11:24:41;3.40;;;2.87;;
13090;SDS011;6611;52.604;13.438;2023-04-23T11:29:46;4.27;;;3.60;;
13090;SDS011;6611;52.604;13.438;2023-04-23T11:34:47;3.40;;;3.10;;
13090;SDS011;6611;52.604;13.438;2023-04-23T11:39:50;4.83;;;3.90;;
13090;SDS011;6611;52.604;13.438;2023-04-23T11:44:53;5.83;;;4.30;;
13090;SDS011;6611;52.604;13.438;2023-04-23T11:49:55;5.07;;;3.83;;
13090;SDS011;6611;52.604;13.438;2023-04-23T11:54:58;5.70;;;3.70;;
13090;SDS011;6611;52.604;13.438;2023-04-23T12:00:11;6.40;;;3.87;;
13090;SDS011;6611;52.604;13.438;2023-04-23T12:05:15;4.13;;;3.50;;
13090;SDS011;6611;52.604;13.438;2023-04-23T12:10:17;5.00;;;4.00;;
13090;SDS011;6611;52.604;13.438;2023-04-23T12:15:21;5.30;;;3.80;;
13090;SDS011;6611;52.604;13.438;2023-04-23T12:20:23;5.27;;;3.93;;
13090;SDS011;6611;52.604;13.438;2023-04-23T12:25:25;3.17;;;2.87;;
13090;SDS011;6611;52.604;13.438;2023-04-23T12:30:28;4.30;;;3.30;;
13090;SDS011;6611;52.604;13.438;2023-04-23T12:35:37;4.50;;;3.33;;
13090;SDS011;6611;52.604;13.438;2023-04-23T12:40:40;3.90;;;3.10;;
13090;SDS011;6611;52.604;13.438;2023-04-23T12:45:43;4.50;;;3.40;;
13090;SDS011;6611;52.604;13.438;2023-04-23T12:50:45;2.97;;;2.63;;
13090;SDS011;6611;52.604;13.438;2023-04-23T12:55:47;4.07;;;2.67;;
13090;SDS011;6611;52.604;13.438;2023-04-23T13:00:50;3.00;;;2.10;;
13090;SDS011;6611;52.604;13.438;2023-04-23T13:05:52;2.73;;;2.30;;
13090;SDS011;6611;52.604;13.438;2023-04-23T13:10:54;2.30;;;2.10;;
13090;SDS011;6611;52.604;13.438;2023-04-23T13:15:57;3.10;;;2.37;;
13090;SDS011;6611;52.604;13.438;2023-04-23T13:20:59;3.20;;;2.83;;
13090;SDS011;6611;52.604;13.438;2023-04-23T13:26:01;5.03;;;2.90;;
13090;SDS011;6611;52.604;13.438;2023-04-23T13:31:07;2.67;;;2.00;;
13090;SDS011;6611;52.604;13.438;2023-04-23T13:36:10;2.70;;;2.33;;
13090;SDS011;6611;52.604;13.438;2023-04-23T13:41:12;3.87;;;2.07;;
13090;SDS011;6611;52.604;13.438;2023-04-23T13:46:15;1.77;;;1.60;;
13090;SDS011;6611;52.604;13.438;2023-04-23T13:51:18;1.80;;;1.37;;
13090;SDS011;6611;52.604;13.438;2023-04-23T13:56:20;1.60;;;1.17;;
13090;SDS011;6611;52.604;13.438;2023-04-23T14:01:23;1.03;;;0.93;;
13090;SDS011;6611;52.604;13.438;2023-04-23T14:06:25;1.37;;;1.27;;
13090;SDS011;6611;52.604;13.438;2023-04-23T14:11:27;1.40;;;1.10;;
13090;SDS011;6611;52.604;13.438;2023-04-23T14:16:30;1.20;;;1.00;;
13090;SDS011;6611;52.604;13.438;2023-04-23T14:21:31;1.33;;;1.00;;
13090;SDS011;6611;52.604;13.438;2023-04-23T14:26:35;1.40;;;1.00;;
13090;SDS011;6611;52.604;13.438;2023-04-23T14:31:38;1.30;;;0.87;;
13090;SDS011;6611;52.604;13.438;2023-04-23T14:36:40;1.63;;;0.70;;
13090;SDS011;6611;52.604;13.438;2023-04-23T14:41:41;0.87;;;0.83;;
13090;SDS011;6611;52.604;13.438;2023-04-23T14:46:45;1.47;;;1.10;;
13090;SDS011;6611;52.604;13.438;2023-04-23T14:51:49;2.40;;;0.90;;
13090;SDS011;6611;52.604;13.438;2023-04-23T14:56:53;1.10;;;0.70;;
13090;SDS011;6611;52.604;13.438;2023-04-23T15:01:57;1.00;;;0.70;;
13090;SDS011;6611;52.604;13.438;2023-04-23T15:07:00;0.77;;;0.77;;
13090;SDS011;6611;52.604;13.438;2023-04-23T15:12:04;1.17;;;0.80;;
13090;SDS011;6611;52.604;13.438;2023-04-23T15:17:09;1.70;;;0.90;;
13090;SDS011;6611;52.604;13.438;2023-04-23T15:22:11;0.77;;;0.70;;
13090;SDS011;6611;52.604;13.438;2023-04-23T15:27:12;0.70;;;0.60;;
13090;SDS011;6611;52.604;13.438;2023-04-23T15:32:16;1.77;;;0.80;;
13090;SDS011;6611;52.604;13.438;2023-04-23T15:37:17;0.80;;;0.50;;
13090;SDS011;6611;52.604;13.438;2023-04-23T15:42:20;0.90;;;0.60;;
13090;SDS011;6611;52.604;13.438;2023-04-23T15:47:25;1.27;;;0.77;;
13090;SDS011;6611;52.604;13.438;2023-04-23T15:52:26;1.00;;;0.70;;
13090;SDS011;6611;52.604;13.438;2023-04-23T15:57:28;1.70;;;0.70;;
13090;SDS011;6611;52.604;13.438;2023-04-23T16:02:31;1.33;;;0.93;;
13090;SDS011;6611;52.604;13.438;2023-04-23T16:07:33;0.80;;;0.80;;
13090;SDS011;6611;52.604;13.438;2023-04-23T16:12:35;0.70;;;0.70;;
13090;SDS011;6611;52.604;13.438;2023-04-23T16:17:38;0.60;;;0.50;;
13090;SDS011;6611;52.604;13.438;2023-04-23T16:22:40;1.93;;;0.60;;
13090;SDS011;6611;52.604;13.438;2023-04-23T16:27:41;2.00;;;0.80;;
13090;SDS011;6611;52.604;13.438;2023-04-23T16:32:44;1.03;;;0.70;;
13090;SDS011;6611;52.604;13.438;2023-04-23T16:37:46;0.57;;;0.53;;
13090;SDS011;6611;52.604;13.438;2023-04-23T16:42:48;2.83;;;0.70;;
13090;SDS011;6611;52.604;13.438;2023-04-23T16:47:51;0.70;;;0.70;;
13090;SDS011;6611;52.604;13.438;2023-04-23T16:52:52;0.67;;;0.50;;
13090;SDS011;6611;52.604;13.438;2023-04-23T16:57:54;0.80;;;0.80;;
13090;SDS011;6611;52.604;13.438;2023-04-23T17:02:58;1.33;;;0.80;;
13090;SDS011;6611;52.604;13.438;2023-04-23T17:08:00;1.10;;;0.70;;
13090;SDS011;6611;52.604;13.438;2023-04-23T17:13:02;1.00;;;0.70;;
13090;SDS011;6611;52.604;13.438;2023-04-23T17:18:05;1.03;;;0.97;;
13090;SDS011;6611;52.604;13.438;2023-04-23T17:23:06;1.03;;;0.90;;
13090;SDS011;6611;52.604;13.438;2023-04-23T17:28:08;2.70;;;0.90;;
13090;SDS011;6611;52.604;13.438;2023-04-23T17:33:11;1.37;;;0.80;;
13090;SDS011;6611;52.604;13.438;2023-04-23T17:38:14;1.00;;;0.80;;
13090;SDS011;6611;52.604;13.438;2023-04-23T17:43:19;1.07;;;0.97;;
13090;SDS011;6611;52.604;13.438;2023-04-23T17:48:23;1.10;;;1.00;;
13090;SDS011;6611;52.604;13.438;2023-04-23T17:53:25;2.93;;;1.70;;
13090;SDS011;6611;52.604;13.438;2023-04-23T17:58:26;2.70;;;2.37;;
13090;SDS011;6611;52.604;13.438;2023-04-23T18:03:29;4.57;;;3.23;;
13090;SDS011;6611;52.604;13.438;2023-04-23T18:08:31;6.90;;;4.33;;
13090;SDS011;6611;52.604;13.438;2023-04-23T18:13:34;5.93;;;4.30;;
13090;SDS011;6611;52.604;13.438;2023-04-23T18:18:37;7.30;;;4.67;;
13090;SDS011;6611;52.604;13.438;2023-04-23T18:23:39;7.27;;;4.60;;
13090;SDS011;6611;52.604;13.438;2023-04-23T18:28:40;6.53;;;5.07;;
13090;SDS011;6611;52.604;13.438;2023-04-23T18:33:46;10.43;;;5.57;;
13090;SDS011;6611;52.604;13.438;2023-04-23T18:38:52;7.37;;;4.90;;
13090;SDS011;6611;52.604;13.438;2023-04-23T18:43:54;7.17;;;4.67;;
13090;SDS011;6611;52.604;13.438;2023-04-23T18:48:58;6.33;;;4.23;;
13090;SDS011;6611;52.604;13.438;2023-04-23T18:54:05;9.20;;;4.23;;
13090;SDS011;6611;52.604;13.438;2023-04-23T18:59:06;4.10;;;2.63;;
13090;SDS011;6611;52.604;13.438;2023-04-23T19:04:09;3.30;;;2.50;;
13090;SDS011;6611;52.604;13.438;2023-04-23T19:09:11;5.97;;;3.57;;
13090;SDS011;6611;52.604;13.438;2023-04-23T19:14:12;5.57;;;3.27;;
13090;SDS011;6611;52.604;13.438;2023-04-23T19:19:16;5.00;;;3.10;;
13090;SDS011;6611;52.604;13.438;2023-04-23T19:24:18;4.30;;;3.10;;
13090;SDS011;6611;52.604;13.438;2023-04-23T19:29:19;3.83;;;2.83;;
13090;SDS011;6611;52.604;13.438;2023-04-23T19:34:22;5.63;;;4.10;;
13090;SDS011;6611;52.604;13.438;2023-04-23T19:39:25;6.77;;;4.33;;
13090;SDS011;6611;52.604;13.438;2023-04-23T19:44:26;5.93;;;4.30;;
13090;SDS011;6611;52.604;13.438;2023-04-23T19:49:29;5.93;;;4.10;;
13090;SDS011;6611;52.604;13.438;2023-04-23T19:54:31;4.30;;;3.43;;
13090;SDS011;6611;52.604;13.438;2023-04-23T19:59:33;3.43;;;2.63;;
13090;SDS011;6611;52.604;13.438;2023-04-23T20:04:36;2.80;;;2.43;;
13090;SDS011;6611;52.604;13.438;2023-04-23T20:09:38;3.83;;;2.60;;
13090;SDS011;6611;52.604;13.438;2023-04-23T20:14:40;3.30;;;2.30;;
13090;SDS011;6611;52.604;13.438;2023-04-23T20:19:44;2.87;;;2.20;;
13090;SDS011;6611;52.604;13.438;2023-04-23T20:24:45;3.13;;;2.43;;
13090;SDS011;6611;52.604;13.438;2023-04-23T20:29:48;4.70;;;2.53;;
13090;SDS011;6611;52.604;13.438;2023-04-23T20:34:52;3.80;;;2.70;;
13090;SDS011;6611;52.604;13.438;2023-04-23T20:39:54;3.30;;;2.20;;
13090;SDS011;6611;52.604;13.438;2023-04-23T20:44:57;2.67;;;2.47;;
13090;SDS011;6611;52.604;13.438;2023-04-23T20:50:01;3.53;;;2.67;;
13090;SDS011;6611;52.604;13.438;2023-04-23T20:55:02;3.77;;;2.80;;
13090;SDS011;6611;52.604;13.438;2023-04-23T21:00:05;3.80;;;2.70;;
13090;SDS011;6611;52.604;13.438;2023-04-23T21:05:12;3.57;;;2.80;;
13090;SDS011;6611;52.604;13.438;2023-04-23T21:10:14;4.43;;;2.60;;
13090;SDS011;6611;52.604;13.438;2023-04-23T21:15:15;4.50;;;2.63;;
13090;SDS011;6611;52.604;13.438;2023-04-23T21:20:19;4.27;;;3.10;;
13090;SDS011;6611;52.604;13.438;2023-04-23T21:25:20;3.00;;;2.57;;
13090;SDS011;6611;52.604;13.438;2023-04-23T21:30:24;3.00;;;2.47;;
13090;SDS011;6611;52.604;13.438;2023-04-23T21:35:33;3.97;;;3.13;;
13090;SDS011;6611;52.604;13.438;2023-04-23T21:40:35;4.10;;;3.00;;
13090;SDS011;6611;52.604;13.438;2023-04-23T21:45:37;4.30;;;3.23;;
13090;SDS011;6611;52.604;13.438;2023-04-23T21:50:41;4.57;;;3.30;;
13090;SDS011;6611;52.604;13.438;2023-04-23T21:55:43;2.97;;;2.53;;
13090;SDS011;6611;52.604;13.438;2023-04-23T22:00:44;2.87;;;2.57;;
13090;SDS011;6611;52.604;13.438;2023-04-23T22:05:48;3.20;;;2.73;;
13090;SDS011;6611;52.604;13.438;2023-04-23T22:10:51;3.47;;;2.57;;
13090;SDS011;6611;52.604;13.438;2023-04-23T22:15:52;4.17;;;2.90;;
13090;SDS011;6611;52.604;13.438;2023-04-23T22:20:57;2.53;;;2.17;;
13090;SDS011;6611;52.604;13.438;2023-04-23T22:25:59;3.63;;;2.57;;
13090;SDS011;6611;52.604;13.438;2023-04-23T22:31:01;3.33;;;2.60;;
13090;SDS011;6611;52.604;13.438;2023-04-23T22:36:04;3.90;;;2.97;;
13090;SDS011;6611;52.604;13.438;2023-04-23T22:41:06;3.87;;;2.80;;
13090;SDS011;6611;52.604;13.438;2023-04-23T22:46:08;3.63;;;2.80;;
13090;SDS011;6611;52.604;13.438;2023-04-23T22:51:11;2.87;;;2.50;;
13090;SDS011;6611;52.604;13.438;2023-04-23T22:56:13;3.70;;;2.90;;
13090;SDS011;6611;52.604;13.438;2023-04-23T23:01:15;3.33;;;2.80;;
13090;SDS011;6611;52.604;13.438;2023-04-23T23:06:18;4.43;;;3.33;;
13090;SDS011;6611;52.604;13.438;2023-04-23T23:11:21;3.37;;;2.57;;
13090;SDS011;6611;52.604;13.438;2023-04-23T23:16:22;3.37;;;2.60;;
13090;SDS011;6611;52.604;13.438;2023-04-23T23:21:25;3.50;;;2.77;;
13090;SDS011;6611;52.604;13.438;2023-04-23T23:26:27;4.43;;;3.03;;
13090;SDS011;6611;52.604;13.438;2023-04-23T23:31:29;4.03;;;3.40;;
13090;SDS011;6611;52.604;13.438;2023-04-23T23:36:32;3.87;;;3.00;;
13090;SDS011;6611;52.604;13.438;2023-04-23T23:41:34;4.97;;;3.20;;
13090;SDS011;6611;52.604;13.438;2023-04-23T23:46:36;3.73;;;3.03;;
13090;SDS011;6611;52.604;13.438;2023-04-23T23:51:39;3.80;;;2.67;;
13090;SDS011;6611;52.604;13.438;2023-04-23T23:56:41;4.03;;;3.37;;
